Cambridge, Minnesota
Current Conditions -  °F | °C
As of 5:36 AM on Friday 24 Oct 2014 (Local Time) from KCBG Reporting Station
Haze Haze  
Wind Chill:   Ceiling: Unl
Heat Index:   Visibility: 5mi
Dew Point:   Wind: 5mph
Humidity: 76%   Direction: 130°SE
Pressure: 29.89"   Gusts: NA
Location:  45.57°N, 93.22°W
Report Text: KCBG 241036Z AUTO 13004KT 5SM HZ CLR 09/05 A2989 RMK AO2
Loading
Personal Weather Stations






























Interactive Weather Map
Tropical Storm Tracking
New forecast layout! Learn more

10-Day Weather Forecast

Advertisements
Track Severe Weather on mobile